createdAt,value
2022-12-27T00:02:10.768Z,7.35
2022-12-27T00:04:38.754Z,7.42
2022-12-27T00:07:07.023Z,7.42
2022-12-27T00:09:35.091Z,7.50
2022-12-27T00:12:02.989Z,7.49
2022-12-27T00:14:30.882Z,7.48
2022-12-27T00:16:58.856Z,7.45
2022-12-27T00:19:28.133Z,7.50
2022-12-27T00:21:56.092Z,7.48
2022-12-27T00:24:24.036Z,7.57
2022-12-27T00:26:52.137Z,7.60
2022-12-27T00:29:20.169Z,7.61
2022-12-27T00:31:48.099Z,7.59
2022-12-27T00:34:15.987Z,7.57
2022-12-27T00:36:45.329Z,7.58
2022-12-27T00:39:13.291Z,7.54
2022-12-27T00:41:41.382Z,7.59
2022-12-27T00:44:09.473Z,7.56
2022-12-27T00:46:37.411Z,7.52
2022-12-27T00:49:05.359Z,7.56
2022-12-27T00:51:33.261Z,7.49
2022-12-27T00:54:02.547Z,7.54
2022-12-27T00:56:31.856Z,7.54
2022-12-27T00:59:01.201Z,7.51
2022-12-27T01:01:30.895Z,7.50
2022-12-27T01:03:59.649Z,7.57
2022-12-27T01:06:29.638Z,7.55
2022-12-27T01:08:58.166Z,7.53
2022-12-27T01:11:28.799Z,7.47
2022-12-27T01:13:57.597Z,7.54
2022-12-27T01:16:26.629Z,7.45
2022-12-27T01:18:55.145Z,7.42
2022-12-27T01:21:25.427Z,7.48
2022-12-27T01:23:53.354Z,7.46
2022-12-27T01:26:22.710Z,7.44
2022-12-27T01:28:53.354Z,7.38
2022-12-27T01:31:22.993Z,7.26
2022-12-27T01:33:54.431Z,7.24
2022-12-27T01:36:24.364Z,7.20
2022-12-27T01:38:52.612Z,7.25
2022-12-27T01:41:41.026Z,7.23
2022-12-27T01:44:43.607Z,7.23
2022-12-27T01:47:15.772Z,7.22
2022-12-27T01:49:56.374Z,7.38
2022-12-27T01:52:26.267Z,7.34
2022-12-27T01:54:55.246Z,7.39
2022-12-27T01:57:23.371Z,7.35
2022-12-27T01:59:51.323Z,7.32
2022-12-27T02:02:22.506Z,7.39
2022-12-27T02:04:50.634Z,7.47
2022-12-27T02:07:19.060Z,7.37
2022-12-27T02:09:50.768Z,7.24
2022-12-27T02:12:19.529Z,7.14
2022-12-27T02:14:49.981Z,7.10
2022-12-27T02:17:21.310Z,7.13
2022-12-27T02:19:54.819Z,7.14
2022-12-27T02:23:12.081Z,7.12
2022-12-27T02:25:55.737Z,6.87
2022-12-27T02:28:38.241Z,6.89
2022-12-27T02:31:10.038Z,7.00
2022-12-27T02:33:40.192Z,6.97
2022-12-27T02:36:11.267Z,6.96
2022-12-27T02:38:41.128Z,6.93
2022-12-27T02:41:29.062Z,6.83
2022-12-27T02:44:26.273Z,6.81
2022-12-27T02:47:13.390Z,6.84
2022-12-27T02:50:02.561Z,6.84
2022-12-27T02:52:53.937Z,6.95
2022-12-27T02:55:32.047Z,6.93
2022-12-27T02:58:08.130Z,6.95
2022-12-27T03:00:59.628Z,6.86
2022-12-27T03:03:44.652Z,6.90
2022-12-27T03:06:41.888Z,6.95
2022-12-27T03:09:50.793Z,6.79
2022-12-27T03:12:42.909Z,6.76
2022-12-27T03:15:33.696Z,6.72
2022-12-27T03:18:05.361Z,6.79
2022-12-27T03:20:52.881Z,6.75
2022-12-27T03:23:38.726Z,6.70
2022-12-27T03:26:07.023Z,6.72
2022-12-27T03:28:53.938Z,6.56
2022-12-27T03:31:43.250Z,6.54
2022-12-27T03:34:27.376Z,6.45
2022-12-27T03:37:15.139Z,6.61
2022-12-27T03:39:47.893Z,6.43
2022-12-27T03:42:36.691Z,6.31
2022-12-27T03:45:04.929Z,6.25
2022-12-27T03:47:36.804Z,6.33
2022-12-27T03:50:08.220Z,6.40
2022-12-27T03:52:41.689Z,6.41
2022-12-27T03:55:10.292Z,6.38
2022-12-27T03:57:38.832Z,6.32
2022-12-27T04:00:08.084Z,6.31
2022-12-27T04:02:36.110Z,6.22
2022-12-27T04:05:04.166Z,6.28
2022-12-27T04:07:32.073Z,6.06
2022-12-27T04:10:18.633Z,6.05
2022-12-27T04:13:04.198Z,6.14
2022-12-27T04:15:49.976Z,6.09
2022-12-27T04:18:35.310Z,6.13
2022-12-27T04:21:20.554Z,6.09
2022-12-27T04:24:06.104Z,6.02
2022-12-27T04:26:52.564Z,5.86
2022-12-27T04:29:37.786Z,5.91
2022-12-27T04:32:23.477Z,5.88
2022-12-27T04:34:51.355Z,5.90
2022-12-27T04:37:20.298Z,5.83
2022-12-27T04:40:10.861Z,5.70
2022-12-27T04:43:03.172Z,5.56
2022-12-27T04:45:48.709Z,5.48
2022-12-27T04:48:34.866Z,5.31
2022-12-27T04:51:20.603Z,5.22
2022-12-27T04:54:05.579Z,5.08
2022-12-27T04:56:33.526Z,4.90
2022-12-27T04:59:20.233Z,4.87
2022-12-27T05:02:06.301Z,4.76
2022-12-27T05:04:37.052Z,4.61
2022-12-27T05:07:19.984Z,4.66
2022-12-27T05:10:05.804Z,4.52
2022-12-27T05:12:47.594Z,4.48
2022-12-27T05:15:16.985Z,4.38
2022-12-27T05:17:44.866Z,4.24
2022-12-27T05:20:13.218Z,4.20
2022-12-27T05:22:58.523Z,4.15
2022-12-27T05:25:46.086Z,4.04
2022-12-27T05:28:14.703Z,3.95
2022-12-27T05:30:45.116Z,3.90
2022-12-27T05:33:13.099Z,3.75
2022-12-27T05:35:41.142Z,3.72
2022-12-27T05:38:09.599Z,3.66
2022-12-27T05:40:37.526Z,3.56
2022-12-27T05:43:05.466Z,3.51
2022-12-27T05:45:34.169Z,3.53
2022-12-27T05:48:03.430Z,3.50
2022-12-27T05:50:31.463Z,3.40
2022-12-27T05:52:59.364Z,3.33
2022-12-27T05:55:27.257Z,3.25
2022-12-27T05:57:55.725Z,3.19
2022-12-27T06:00:23.745Z,3.09
2022-12-27T06:02:51.953Z,2.96
2022-12-27T06:05:21.413Z,2.92
2022-12-27T06:07:49.304Z,2.92
2022-12-27T06:10:17.241Z,2.92
2022-12-27T06:12:45.194Z,2.61
2022-12-27T06:15:13.134Z,2.79
2022-12-27T06:17:41.190Z,2.75
2022-12-27T06:20:09.653Z,2.77
2022-12-27T06:22:38.917Z,2.61
2022-12-27T06:25:12.477Z,2.46
2022-12-27T06:27:42.301Z,2.58
2022-12-27T06:30:12.223Z,2.56
2022-12-27T06:32:40.337Z,2.49
2022-12-27T06:35:09.051Z,2.36
2022-12-27T06:37:38.495Z,2.30
2022-12-27T06:40:07.700Z,2.30
2022-12-27T06:42:35.673Z,2.18
2022-12-27T06:45:03.559Z,2.17
2022-12-27T06:47:31.445Z,2.19
2022-12-27T06:49:59.379Z,1.94
2022-12-27T06:52:27.252Z,2.21
2022-12-27T06:54:56.512Z,2.17
2022-12-27T06:57:24.403Z,2.04
2022-12-27T06:59:54.097Z,1.93
2022-12-27T07:02:22.356Z,2.08
2022-12-27T07:04:50.314Z,1.98
2022-12-27T07:07:18.254Z,2.02
2022-12-27T07:09:46.158Z,2.01
2022-12-27T07:12:15.465Z,2.14
2022-12-27T07:14:43.379Z,2.22
2022-12-27T07:17:11.283Z,2.25
2022-12-27T07:19:39.176Z,2.54
2022-12-27T07:22:07.091Z,2.49
2022-12-27T07:24:35.006Z,2.60
2022-12-27T07:27:03.138Z,2.62
2022-12-27T07:29:32.480Z,2.60
2022-12-27T07:32:00.445Z,2.60
2022-12-27T07:34:28.379Z,2.53
2022-12-27T07:36:56.299Z,2.58
2022-12-27T07:39:24.229Z,2.45
2022-12-27T07:41:52.101Z,2.35
2022-12-27T07:44:20.006Z,2.37
2022-12-27T07:46:49.315Z,2.34
2022-12-27T07:49:18.093Z,2.28
2022-12-27T07:51:46.243Z,2.28
2022-12-27T07:54:14.183Z,2.41
2022-12-27T07:56:42.096Z,2.59
2022-12-27T07:59:12.440Z,2.68
2022-12-27T08:02:03.755Z,2.78
2022-12-27T08:04:35.266Z,2.81
2022-12-27T08:07:05.911Z,2.81
2022-12-27T08:09:36.372Z,2.85
2022-12-27T08:12:04.359Z,2.96
2022-12-27T08:14:32.389Z,3.04
2022-12-27T08:17:05.310Z,3.01
2022-12-27T08:19:34.708Z,3.04
2022-12-27T08:22:05.153Z,3.03
2022-12-27T08:24:33.477Z,2.97
2022-12-27T08:27:01.388Z,3.07
2022-12-27T08:29:29.427Z,3.10
2022-12-27T08:31:57.364Z,3.00
2022-12-27T08:34:25.314Z,3.12
2022-12-27T08:36:56.112Z,3.21
2022-12-27T08:39:24.821Z,3.15
2022-12-27T08:41:53.829Z,3.09
2022-12-27T08:44:21.768Z,3.20
2022-12-27T08:46:49.710Z,3.23
2022-12-27T08:49:17.609Z,3.17
2022-12-27T08:51:45.528Z,3.27
2022-12-27T08:54:14.799Z,3.37
2022-12-27T08:56:42.718Z,3.42
2022-12-27T08:59:10.622Z,3.39
2022-12-27T09:01:38.909Z,3.35
2022-12-27T09:04:06.968Z,3.47
2022-12-27T09:06:35.153Z,3.50
2022-12-27T09:09:03.061Z,3.53
2022-12-27T09:11:34.225Z,3.69
2022-12-27T09:14:04.320Z,3.64
2022-12-27T09:16:34.109Z,3.71
2022-12-27T09:19:02.823Z,3.73
2022-12-27T09:21:32.020Z,3.87
2022-12-27T09:24:00.042Z,3.88
2022-12-27T09:26:30.052Z,4.10
2022-12-27T09:28:59.925Z,4.23
2022-12-27T09:31:28.329Z,4.30
2022-12-27T09:33:56.672Z,4.14
2022-12-27T09:36:26.432Z,4.17
2022-12-27T09:38:55.318Z,4.00
2022-12-27T09:44:32.026Z,4.45
2022-12-27T09:47:03.714Z,4.26
2022-12-27T09:49:34.911Z,4.31
2022-12-27T09:52:05.878Z,4.43
2022-12-27T09:54:38.354Z,4.28
2022-12-27T09:57:19.939Z,4.27
2022-12-27T09:59:51.172Z,4.44
2022-12-27T10:02:23.709Z,4.52
2022-12-27T10:05:19.143Z,4.58
2022-12-27T10:07:47.597Z,4.47
2022-12-27T10:10:22.625Z,4.49
2022-12-27T10:13:07.961Z,4.45
2022-12-27T10:15:46.943Z,4.59
2022-12-27T10:18:19.977Z,4.78
2022-12-27T10:21:03.489Z,4.65
2022-12-27T10:23:33.892Z,4.52
2022-12-27T10:26:04.228Z,4.72
2022-12-27T10:28:37.875Z,4.74
2022-12-27T10:31:10.765Z,4.79
2022-12-27T10:33:40.211Z,4.74
2022-12-27T10:36:12.381Z,4.51
2022-12-27T10:38:40.278Z,4.44
2022-12-27T10:41:21.228Z,4.67
2022-12-27T10:43:52.308Z,4.96
2022-12-27T10:46:27.536Z,4.91
2022-12-27T10:51:49.163Z,4.85
2022-12-27T10:54:20.056Z,4.76
2022-12-27T10:56:48.227Z,4.73
2022-12-27T10:59:17.656Z,4.79
2022-12-27T11:01:48.061Z,4.91
2022-12-27T11:04:21.190Z,4.78
2022-12-27T11:06:51.537Z,4.73
2022-12-27T11:09:26.579Z,4.79
2022-12-27T11:12:17.853Z,4.92
2022-12-27T11:14:56.668Z,5.04
2022-12-27T11:17:29.787Z,4.89
2022-12-27T11:19:58.696Z,5.00
2022-12-27T11:22:27.172Z,4.97
2022-12-27T11:24:57.521Z,5.22
2022-12-27T11:27:27.472Z,5.19
2022-12-27T11:29:57.438Z,5.43
2022-12-27T11:32:26.898Z,5.51
2022-12-27T11:34:55.984Z,5.62
2022-12-27T11:37:26.770Z,5.20
2022-12-27T11:39:56.131Z,4.98
2022-12-27T11:42:32.626Z,4.80
2022-12-27T11:45:08.058Z,5.02
2022-12-27T11:47:44.280Z,5.05
2022-12-27T11:50:24.548Z,5.01
2022-12-27T11:53:07.443Z,5.16
2022-12-27T11:55:54.015Z,5.25
2022-12-27T11:58:39.965Z,5.35
2022-12-27T12:01:27.707Z,5.30
2022-12-27T12:04:24.065Z,5.34
2022-12-27T12:07:00.821Z,5.42
2022-12-27T12:09:44.811Z,5.51
2022-12-27T12:12:47.232Z,5.55
2022-12-27T12:15:56.650Z,5.54
2022-12-27T12:18:39.751Z,5.49
2022-12-27T12:21:26.908Z,5.63
2022-12-27T12:24:19.724Z,5.73
2022-12-27T12:26:55.954Z,5.76
2022-12-27T12:29:37.974Z,5.60
2022-12-27T12:32:27.685Z,5.68
2022-12-27T12:35:31.185Z,5.65
2022-12-27T12:38:14.017Z,5.61
2022-12-27T12:40:59.361Z,5.63
2022-12-27T12:43:43.167Z,5.90
2022-12-27T12:46:21.388Z,5.99
2022-12-27T12:49:01.795Z,5.96
2022-12-27T12:51:46.560Z,5.94
2022-12-27T12:54:37.290Z,5.79
2022-12-27T12:57:17.427Z,5.96
2022-12-27T13:00:01.934Z,6.09
2022-12-27T13:02:50.911Z,5.89
2022-12-27T13:05:24.484Z,5.89
2022-12-27T13:08:01.314Z,5.87
2022-12-27T13:11:04.434Z,5.79
2022-12-27T13:13:40.287Z,6.06
2022-12-27T13:16:15.883Z,5.87
2022-12-27T13:18:52.593Z,5.72
2022-12-27T13:21:28.572Z,5.85
2022-12-27T13:24:04.165Z,5.94
2022-12-27T13:26:40.369Z,5.92
2022-12-27T13:29:33.330Z,5.91
2022-12-27T13:32:06.054Z,5.88
2022-12-27T13:34:40.087Z,5.91
2022-12-27T13:37:16.471Z,5.71
2022-12-27T13:40:01.786Z,5.54
2022-12-27T13:43:17.798Z,5.30
2022-12-27T13:45:56.171Z,5.24
2022-12-27T13:48:45.419Z,5.27
2022-12-27T13:51:25.728Z,5.15
2022-12-27T13:54:12.341Z,4.99
2022-12-27T13:56:55.503Z,4.87
2022-12-27T13:59:42.032Z,4.83
2022-12-27T14:02:45.519Z,4.58
2022-12-27T14:05:51.532Z,4.67
2022-12-27T14:08:26.474Z,4.54
2022-12-27T14:11:00.886Z,4.42
2022-12-27T14:13:33.470Z,4.43
2022-12-27T14:16:15.315Z,4.47
2022-12-27T14:18:53.930Z,4.52
2022-12-27T14:21:39.176Z,4.45
2022-12-27T14:24:15.931Z,4.44
2022-12-27T14:27:31.745Z,4.42
2022-12-27T14:30:34.171Z,4.31
2022-12-27T14:33:46.848Z,4.25
2022-12-27T14:36:52.656Z,4.22
2022-12-27T14:39:56.931Z,4.02
2022-12-27T14:43:00.606Z,3.97
2022-12-27T14:45:58.172Z,3.87
2022-12-27T14:49:02.535Z,3.57
2022-12-27T14:52:03.500Z,3.38
2022-12-27T14:55:03.735Z,3.22
2022-12-27T14:57:39.658Z,2.98
2022-12-27T15:00:15.665Z,2.83
2022-12-27T15:03:06.238Z,2.73
2022-12-27T15:05:46.792Z,2.64
2022-12-27T15:08:34.656Z,2.46
2022-12-27T15:11:17.931Z,2.60
2022-12-27T15:13:58.100Z,2.37
2022-12-27T15:16:32.566Z,2.28
2022-12-27T15:19:14.778Z,2.15
2022-12-27T15:21:51.019Z,2.05
2022-12-27T15:24:29.407Z,2.04
2022-12-27T15:27:02.533Z,1.97
2022-12-27T15:29:43.597Z,1.87
2022-12-27T15:32:25.322Z,1.81
2022-12-27T15:35:11.569Z,1.90
2022-12-27T15:37:53.631Z,1.63
2022-12-27T15:40:29.575Z,1.56
2022-12-27T15:43:03.061Z,1.59
2022-12-27T15:45:43.693Z,1.50
2022-12-27T15:48:28.201Z,1.39
2022-12-27T15:50:59.924Z,1.30
2022-12-27T15:54:04.495Z,1.15
2022-12-27T15:56:44.425Z,1.07
2022-12-27T15:59:38.974Z,1.00
2022-12-27T16:02:25.827Z,0.90
2022-12-27T16:04:56.843Z,0.94
2022-12-27T16:07:43.073Z,0.80
2022-12-27T16:10:47.862Z,0.77
2022-12-27T16:13:23.021Z,0.75
2022-12-27T16:15:53.426Z,0.69
2022-12-27T16:19:16.398Z,0.65
2022-12-27T16:21:46.296Z,0.62
2022-12-27T16:24:20.446Z,0.67
2022-12-27T16:26:55.940Z,0.55
2022-12-27T16:29:27.819Z,0.52
2022-12-27T16:32:16.408Z,0.48
2022-12-27T16:34:46.793Z,0.38
2022-12-27T16:37:27.668Z,0.51
2022-12-27T16:40:20.267Z,0.44
2022-12-27T16:43:32.798Z,0.33
2022-12-27T16:46:45.600Z,0.46
2022-12-27T16:49:42.451Z,0.28
2022-12-27T16:52:34.184Z,0.24
2022-12-27T16:55:18.623Z,0.27
2022-12-27T16:57:47.866Z,0.35
2022-12-27T17:00:38.659Z,0.23
2022-12-27T17:03:32.310Z,0.14
2022-12-27T17:09:34.081Z,-0.09
2022-12-27T17:12:07.129Z,-0.01
2022-12-27T17:14:37.291Z,-0.14
2022-12-27T17:17:09.370Z,-0.22
2022-12-27T17:19:40.429Z,-0.26
2022-12-27T17:22:14.123Z,-0.30
2022-12-27T17:24:44.039Z,-0.27
2022-12-27T17:27:20.616Z,-0.26
2022-12-27T17:30:07.913Z,-0.16
2022-12-27T17:33:11.683Z,-0.28
2022-12-27T17:35:48.099Z,-0.33
2022-12-27T17:38:23.260Z,-0.40
2022-12-27T17:41:00.347Z,-0.45
2022-12-27T17:43:52.961Z,-0.44
2022-12-27T17:46:30.623Z,-0.55
2022-12-27T17:48:59.031Z,-0.59
2022-12-27T17:51:29.065Z,-0.64
2022-12-27T17:54:15.291Z,-0.67
2022-12-27T17:57:03.649Z,-0.71
2022-12-27T17:59:32.528Z,-0.67
2022-12-27T18:02:04.751Z,-0.74
2022-12-27T18:04:35.332Z,-0.73
2022-12-27T18:07:05.319Z,-0.82
2022-12-27T18:09:39.829Z,-0.89
2022-12-27T18:12:15.573Z,-0.81
2022-12-27T18:14:43.534Z,-0.86
2022-12-27T18:17:28.495Z,-0.84
2022-12-27T18:19:57.240Z,-0.83
2022-12-27T18:22:25.151Z,-0.90
2022-12-27T18:24:53.046Z,-0.79
2022-12-27T18:27:25.548Z,-0.72
2022-12-27T18:29:53.517Z,-0.59
2022-12-27T18:32:22.054Z,-0.47
2022-12-27T18:34:53.137Z,-0.47
2022-12-27T18:37:23.018Z,-0.22
2022-12-27T18:39:53.328Z,-0.09
2022-12-27T18:42:28.185Z,-0.01
2022-12-27T18:44:58.322Z,-0.21
2022-12-27T18:47:28.080Z,-0.28
2022-12-27T18:49:58.680Z,-0.46
2022-12-27T18:52:31.806Z,-0.41
2022-12-27T18:55:08.123Z,-0.34
2022-12-27T18:57:38.256Z,-0.46
2022-12-27T19:00:17.704Z,-0.51
2022-12-27T19:02:46.544Z,-0.50
2022-12-27T19:05:24.696Z,-0.43
2022-12-27T19:07:55.190Z,-0.49
2022-12-27T19:10:24.520Z,-0.53
2022-12-27T19:12:54.167Z,-0.55
2022-12-27T19:15:24.837Z,-0.42
2022-12-27T19:17:54.721Z,-0.58
2022-12-27T19:20:24.667Z,-0.61
2022-12-27T19:22:55.403Z,-0.78
2022-12-27T19:25:25.708Z,-0.76
2022-12-27T19:28:03.890Z,-0.71
2022-12-27T19:30:38.268Z,-0.47
2022-12-27T19:33:10.114Z,-0.44
2022-12-27T19:35:38.083Z,-0.41
2022-12-27T19:38:06.021Z,-0.51
2022-12-27T19:40:33.963Z,-0.48
2022-12-27T19:43:03.280Z,-0.41
2022-12-27T19:45:31.308Z,-0.37
2022-12-27T19:47:59.308Z,-0.38
2022-12-27T19:50:27.187Z,-0.54
2022-12-27T19:52:55.096Z,-0.52
2022-12-27T19:55:26.241Z,-0.60
2022-12-27T19:57:54.262Z,-0.65
2022-12-27T20:00:24.626Z,-0.63
2022-12-27T20:02:53.145Z,-0.68
2022-12-27T20:06:12.825Z,-0.68
2022-12-27T20:08:25.034Z,-0.64
2022-12-27T20:10:53.176Z,-0.78
2022-12-27T20:13:21.863Z,-0.84
2022-12-27T20:15:52.085Z,-0.83
2022-12-27T20:18:20.156Z,-0.82
2022-12-27T20:20:48.653Z,-0.64
2022-12-27T20:23:17.077Z,-0.67
2022-12-27T20:25:47.407Z,-0.66
2022-12-27T20:28:16.353Z,-0.72
2022-12-27T20:30:45.118Z,-0.74
2022-12-27T20:33:15.034Z,-0.66
2022-12-27T20:35:43.190Z,-0.74
2022-12-27T20:38:11.986Z,-0.77
2022-12-27T20:40:41.183Z,-0.78
2022-12-27T20:43:09.206Z,-0.82
2022-12-27T20:45:37.531Z,-0.93
2022-12-27T20:48:05.863Z,-0.98
2022-12-27T20:50:35.157Z,-0.99
2022-12-27T20:53:03.092Z,-0.93
2022-12-27T20:55:31.367Z,-1.02
2022-12-27T20:58:00.485Z,-1.08
2022-12-27T21:00:28.406Z,-1.08
2022-12-27T21:02:56.849Z,-1.08
2022-12-27T21:05:24.922Z,-1.07
2022-12-27T21:07:54.216Z,-1.25
2022-12-27T21:10:22.123Z,-1.30
2022-12-27T21:12:50.028Z,-1.36
2022-12-27T21:15:18.028Z,-1.21
2022-12-27T21:17:45.955Z,-1.35
2022-12-27T21:20:14.196Z,-1.35
2022-12-27T21:22:42.212Z,-1.21
2022-12-27T21:25:11.603Z,-1.20
2022-12-27T21:27:39.570Z,-1.25
2022-12-27T21:30:08.630Z,-1.34
2022-12-27T21:32:36.532Z,-1.47
2022-12-27T21:35:04.515Z,-1.35
2022-12-27T21:37:32.392Z,-1.33
2022-12-27T21:40:00.331Z,-1.29
2022-12-27T21:42:29.660Z,-1.37
2022-12-27T21:44:57.626Z,-1.38
2022-12-27T21:47:26.072Z,-1.26
2022-12-27T21:49:54.079Z,-1.40
2022-12-27T21:52:22.050Z,-1.41
2022-12-27T21:54:49.985Z,-1.27
2022-12-27T21:57:17.884Z,-1.45
2022-12-27T21:59:47.303Z,-1.48
2022-12-27T22:02:15.580Z,-1.53
2022-12-27T22:04:43.556Z,-1.55
2022-12-27T22:07:11.463Z,-1.65
2022-12-27T22:09:39.406Z,-1.73
2022-12-27T22:12:07.631Z,-1.60
2022-12-27T22:14:37.222Z,-1.56
2022-12-27T22:17:06.696Z,-1.56
2022-12-27T22:19:34.883Z,-1.60
2022-12-27T22:22:02.808Z,-1.61
2022-12-27T22:24:31.010Z,-1.69
2022-12-27T22:26:58.974Z,-1.77
2022-12-27T22:29:33.224Z,-1.87
2022-12-27T22:32:03.039Z,-2.00
2022-12-27T22:34:32.351Z,-1.70
2022-12-27T22:37:00.240Z,-1.73
2022-12-27T22:39:29.033Z,-1.84
2022-12-27T22:41:57.098Z,-2.02
2022-12-27T22:44:26.809Z,-2.16
2022-12-27T22:47:25.187Z,-2.22
2022-12-27T22:49:48.434Z,-2.17
2022-12-27T22:52:16.523Z,-2.21
2022-12-27T22:55:05.515Z,-2.13
2022-12-27T22:57:32.294Z,-2.23
2022-12-27T23:00:00.173Z,-2.26
2022-12-27T23:02:28.327Z,-2.27
2022-12-27T23:04:57.761Z,-2.34
2022-12-27T23:08:04.286Z,-2.29
2022-12-27T23:10:13.582Z,-2.32
2022-12-27T23:12:41.503Z,-2.28
2022-12-27T23:15:10.413Z,-2.34
2022-12-27T23:17:38.311Z,-2.18
2022-12-27T23:20:09.414Z,-2.28
2022-12-27T23:22:37.288Z,-2.40
2022-12-27T23:25:05.832Z,-2.42
2022-12-27T23:27:33.732Z,-2.39
2022-12-27T23:30:01.660Z,-2.45
2022-12-27T23:32:29.543Z,-2.53
2022-12-27T23:34:57.444Z,-2.22
2022-12-27T23:37:26.709Z,-2.29
2022-12-27T23:39:54.636Z,-2.50
2022-12-27T23:42:22.584Z,-2.53
2022-12-27T23:44:50.609Z,-2.60
2022-12-27T23:47:18.537Z,-2.60
2022-12-27T23:49:46.425Z,-2.63
2022-12-27T23:52:14.297Z,-2.63
2022-12-27T23:54:43.663Z,-2.58
2022-12-27T23:57:20.264Z,-2.74
2022-12-27T23:59:51.579Z,-2.44
